createdAt,value
2023-03-06T00:00:01.151Z,0
2023-03-06T00:00:31.158Z,0
2023-03-06T00:01:01.176Z,0
2023-03-06T00:01:31.180Z,0
2023-03-06T00:02:01.195Z,0
2023-03-06T00:02:31.178Z,0
2023-03-06T00:03:01.181Z,0
2023-03-06T00:03:31.239Z,0
2023-03-06T00:04:01.320Z,0
2023-03-06T00:04:31.209Z,0
2023-03-06T00:05:01.214Z,0
2023-03-06T00:05:31.231Z,0
2023-03-06T00:06:01.313Z,0
2023-03-06T00:06:31.243Z,0
2023-03-06T00:07:01.235Z,0
2023-03-06T00:07:31.247Z,0
2023-03-06T00:08:01.255Z,0
2023-03-06T00:08:31.260Z,0
2023-03-06T00:09:01.276Z,0
2023-03-06T00:09:31.269Z,0
2023-03-06T00:10:01.290Z,0
2023-03-06T00:10:31.290Z,0
2023-03-06T00:11:01.294Z,0
2023-03-06T00:11:31.300Z,0
2023-03-06T00:12:01.301Z,0
2023-03-06T00:12:31.312Z,0
2023-03-06T00:13:01.324Z,0
2023-03-06T00:13:31.333Z,0
2023-03-06T00:14:01.337Z,0
2023-03-06T00:14:31.351Z,0
2023-03-06T00:15:01.346Z,0
2023-03-06T00:15:31.353Z,0
2023-03-06T00:16:01.415Z,0
2023-03-06T00:16:31.381Z,0
2023-03-06T00:17:01.376Z,0
2023-03-06T00:17:31.380Z,0
2023-03-06T00:18:01.397Z,0
2023-03-06T00:18:31.388Z,0
2023-03-06T00:19:01.398Z,0
2023-03-06T00:19:31.414Z,0
2023-03-06T00:20:01.409Z,0
2023-03-06T00:20:31.431Z,0
2023-03-06T00:21:01.426Z,0
2023-03-06T00:21:31.429Z,0
2023-03-06T00:22:01.441Z,0
2023-03-06T00:22:31.444Z,0
2023-03-06T00:23:01.450Z,0
2023-03-06T00:23:31.466Z,0
2023-03-06T00:24:01.457Z,0
2023-03-06T00:24:31.475Z,0
2023-03-06T00:25:01.476Z,0
2023-03-06T00:25:31.492Z,0
2023-03-06T00:26:01.494Z,0
2023-03-06T00:26:32.101Z,0
2023-03-06T00:27:01.510Z,0
2023-03-06T00:27:31.531Z,0
2023-03-06T00:28:01.513Z,0
2023-03-06T00:28:31.529Z,0
2023-03-06T00:29:01.527Z,0
2023-03-06T00:29:31.538Z,0
2023-03-06T00:30:01.541Z,0
2023-03-06T00:30:31.549Z,0
2023-03-06T00:31:01.551Z,0
2023-03-06T00:31:31.695Z,0
2023-03-06T00:32:01.640Z,0
2023-03-06T00:32:31.601Z,0
2023-03-06T00:33:01.584Z,0
2023-03-06T00:33:31.584Z,0
2023-03-06T00:34:01.588Z,0
2023-03-06T00:34:31.606Z,0
2023-03-06T00:35:01.606Z,0
2023-03-06T00:35:31.659Z,0
2023-03-06T00:36:01.615Z,0
2023-03-06T00:36:31.625Z,0
2023-03-06T00:37:01.634Z,0
2023-03-06T00:37:31.643Z,0
2023-03-06T00:38:01.652Z,0
2023-03-06T00:38:31.655Z,0
2023-03-06T00:39:01.677Z,0
2023-03-06T00:39:31.655Z,0
2023-03-06T00:40:01.672Z,0
2023-03-06T00:40:31.705Z,0
2023-03-06T00:41:01.690Z,0
2023-03-06T00:41:31.694Z,0
2023-03-06T00:42:01.695Z,0
2023-03-06T00:42:31.700Z,0
2023-03-06T00:43:01.717Z,0
2023-03-06T00:43:31.723Z,0
2023-03-06T00:44:01.729Z,0
2023-03-06T00:44:31.728Z,0
2023-03-06T00:45:01.733Z,0
2023-03-06T00:45:31.767Z,0
2023-03-06T00:46:01.792Z,0
2023-03-06T00:46:31.764Z,0
2023-03-06T00:47:01.769Z,0
2023-03-06T00:47:31.766Z,0
2023-03-06T00:48:01.779Z,0
2023-03-06T00:48:31.781Z,0
2023-03-06T00:49:01.786Z,0
2023-03-06T00:49:31.797Z,0
2023-03-06T00:50:01.828Z,0
2023-03-06T00:50:31.828Z,0
2023-03-06T00:51:01.829Z,0
2023-03-06T00:51:31.817Z,0
2023-03-06T00:52:01.826Z,0
2023-03-06T00:52:31.829Z,0
2023-03-06T00:53:01.845Z,0
2023-03-06T00:53:31.852Z,0
2023-03-06T00:54:01.850Z,0
2023-03-06T00:54:31.864Z,0
2023-03-06T00:55:01.861Z,0
2023-03-06T00:55:31.902Z,0
2023-03-06T00:56:01.887Z,0
2023-03-06T00:56:31.890Z,0
2023-03-06T00:57:01.895Z,0
2023-03-06T00:57:32.718Z,0
2023-03-06T00:58:01.918Z,0
2023-03-06T00:58:31.913Z,0
2023-03-06T00:59:01.914Z,0
2023-03-06T00:59:31.926Z,0
2023-03-06T01:00:01.933Z,0
2023-03-06T01:00:31.937Z,0
2023-03-06T01:01:01.995Z,0
2023-03-06T01:01:31.947Z,0
2023-03-06T01:02:01.986Z,0
2023-03-06T01:02:32.044Z,0
2023-03-06T01:03:01.985Z,0
2023-03-06T01:03:31.986Z,0
2023-03-06T01:04:01.989Z,0
2023-03-06T01:04:32.000Z,0
2023-03-06T01:05:02.019Z,0
2023-03-06T01:05:32.014Z,0
2023-03-06T01:06:02.023Z,0
2023-03-06T01:06:32.025Z,0
2023-03-06T01:07:02.019Z,0
2023-03-06T01:07:32.031Z,0
2023-03-06T01:08:02.047Z,0
2023-03-06T01:08:32.042Z,0
2023-03-06T01:09:02.049Z,0
2023-03-06T01:09:32.062Z,0
2023-03-06T01:10:02.054Z,0
2023-03-06T01:10:32.069Z,0
2023-03-06T01:11:02.103Z,0
2023-03-06T01:11:32.081Z,0
2023-03-06T01:12:02.090Z,0
2023-03-06T01:12:32.092Z,0
2023-03-06T01:13:02.102Z,0
2023-03-06T01:13:32.106Z,0
2023-03-06T01:14:02.126Z,0
2023-03-06T01:14:32.118Z,0
2023-03-06T01:15:02.123Z,0
2023-03-06T01:15:32.128Z,0
2023-03-06T01:16:02.182Z,0
2023-03-06T01:16:32.172Z,0
2023-03-06T01:17:02.152Z,0
2023-03-06T01:17:32.175Z,0
2023-03-06T01:18:02.163Z,0
2023-03-06T01:18:32.185Z,0
2023-03-06T01:19:02.190Z,0
2023-03-06T01:19:32.182Z,0
2023-03-06T01:20:02.204Z,0
2023-03-06T01:20:32.194Z,0
2023-03-06T01:21:02.206Z,0
2023-03-06T01:21:32.924Z,0
2023-03-06T01:22:02.216Z,0
2023-03-06T01:22:32.231Z,0
2023-03-06T01:23:02.228Z,0
2023-03-06T01:23:32.237Z,0
2023-03-06T01:24:02.243Z,0
2023-03-06T01:24:32.258Z,0
2023-03-06T01:25:02.256Z,0
2023-03-06T01:25:32.257Z,0
2023-03-06T01:26:02.271Z,0
2023-03-06T01:26:32.283Z,0
2023-03-06T01:27:02.289Z,0
2023-03-06T01:27:32.291Z,0
2023-03-06T01:28:02.302Z,0
2023-03-06T01:28:32.296Z,0
2023-03-06T01:29:02.312Z,0
2023-03-06T01:29:32.315Z,0
2023-03-06T01:30:02.334Z,0
2023-03-06T01:30:32.324Z,0
2023-03-06T01:31:02.329Z,0
2023-03-06T01:31:32.358Z,0
2023-03-06T01:32:02.531Z,0
2023-03-06T01:32:32.374Z,0
2023-03-06T01:33:02.370Z,0
2023-03-06T01:33:32.517Z,0
2023-03-06T01:34:02.374Z,0
2023-03-06T01:34:32.396Z,0
2023-03-06T01:35:02.382Z,0
2023-03-06T01:35:32.434Z,0
2023-03-06T01:36:02.397Z,0
2023-03-06T01:36:32.406Z,0
2023-03-06T01:37:02.415Z,0
2023-03-06T01:37:32.423Z,0
2023-03-06T01:38:02.423Z,0
2023-03-06T01:38:32.453Z,0
2023-03-06T01:39:02.450Z,0
2023-03-06T01:39:32.443Z,0
2023-03-06T01:40:02.454Z,0
2023-03-06T01:40:32.464Z,0
2023-03-06T01:41:02.492Z,0
2023-03-06T01:41:32.478Z,0
2023-03-06T01:42:02.474Z,0
2023-03-06T01:42:32.489Z,0
2023-03-06T01:43:02.498Z,0
2023-03-06T01:43:32.500Z,0
2023-03-06T01:44:02.522Z,0
2023-03-06T01:44:32.516Z,0
2023-03-06T01:45:02.519Z,0
2023-03-06T01:45:32.540Z,0
2023-03-06T01:46:02.553Z,0
2023-03-06T01:46:32.580Z,0
2023-03-06T01:47:02.557Z,0
2023-03-06T01:47:32.554Z,0
2023-03-06T01:48:02.561Z,0
2023-03-06T01:48:32.564Z,0
2023-03-06T01:49:02.577Z,0
2023-03-06T01:49:32.586Z,0
2023-03-06T01:50:02.621Z,0
2023-03-06T01:50:32.588Z,0
2023-03-06T01:51:02.592Z,0
2023-03-06T01:51:32.601Z,0
2023-03-06T01:52:02.618Z,0
2023-03-06T01:52:32.632Z,0
2023-03-06T01:53:02.623Z,0
2023-03-06T01:53:32.632Z,0
2023-03-06T01:54:02.662Z,0
2023-03-06T01:54:32.655Z,0
2023-03-06T01:55:02.649Z,0
2023-03-06T01:55:32.660Z,0
2023-03-06T01:56:02.665Z,0
2023-03-06T01:56:32.693Z,0
2023-03-06T01:57:02.668Z,0
2023-03-06T01:57:32.682Z,0
2023-03-06T01:58:02.698Z,0
2023-03-06T01:58:32.696Z,0
2023-03-06T01:59:02.701Z,0
2023-03-06T01:59:32.725Z,0
2023-03-06T02:00:02.749Z,0
2023-03-06T02:00:32.723Z,0
2023-03-06T02:01:02.786Z,0
2023-03-06T02:01:32.734Z,0
2023-03-06T02:02:13.218Z,0
2023-03-06T02:02:43.238Z,0
2023-03-06T02:03:13.171Z,0
2023-03-06T02:03:43.181Z,0
2023-03-06T02:04:13.203Z,0
2023-03-06T02:04:43.208Z,0
2023-03-06T02:05:13.206Z,0
2023-03-06T02:05:43.207Z,0
2023-03-06T02:06:13.209Z,0
2023-03-06T02:06:43.306Z,0
2023-03-06T02:07:13.226Z,0
2023-03-06T02:07:43.246Z,0
2023-03-06T02:08:13.239Z,0
2023-03-06T02:08:43.249Z,0
2023-03-06T02:09:13.266Z,0
2023-03-06T02:09:43.262Z,0
2023-03-06T02:10:13.264Z,0
2023-03-06T02:10:43.288Z,0
2023-03-06T02:11:13.353Z,0
2023-03-06T02:11:43.352Z,0
2023-03-06T02:12:13.291Z,0
2023-03-06T02:12:43.312Z,0
2023-03-06T02:13:13.303Z,0
2023-03-06T02:13:43.327Z,0
2023-03-06T02:14:13.325Z,0
2023-03-06T02:14:43.326Z,0
2023-03-06T02:15:13.328Z,0
2023-03-06T02:15:44.000Z,0
2023-03-06T02:16:13.342Z,0
2023-03-06T02:16:43.414Z,0
2023-03-06T02:17:13.380Z,0
2023-03-06T02:17:43.368Z,0
2023-03-06T02:18:13.364Z,0
2023-03-06T02:18:43.389Z,0
2023-03-06T02:19:13.388Z,0
2023-03-06T02:19:43.402Z,0
2023-03-06T02:20:13.406Z,0
2023-03-06T02:20:43.408Z,0
2023-03-06T02:21:13.412Z,0
2023-03-06T02:21:43.420Z,0
2023-03-06T02:22:13.426Z,0
2023-03-06T02:22:43.438Z,0
2023-03-06T02:23:13.445Z,0
2023-03-06T02:23:43.456Z,0
2023-03-06T02:24:13.447Z,0
2023-03-06T02:24:43.489Z,0
2023-03-06T02:25:13.493Z,0
2023-03-06T02:25:43.521Z,0
2023-03-06T02:26:13.480Z,0
2023-03-06T02:26:43.485Z,0
2023-03-06T02:27:13.508Z,0
2023-03-06T02:27:43.498Z,0
2023-03-06T02:28:13.537Z,0
2023-03-06T02:28:43.522Z,0
2023-03-06T02:29:13.527Z,0
2023-03-06T02:29:43.554Z,0
2023-03-06T02:30:13.533Z,0
2023-03-06T02:30:43.565Z,0
2023-03-06T02:31:13.633Z,0
2023-03-06T02:31:43.591Z,0
2023-03-06T02:32:13.582Z,0
2023-03-06T02:32:43.591Z,0
2023-03-06T02:33:13.625Z,0
2023-03-06T02:33:43.613Z,0
2023-03-06T02:34:13.584Z,0
2023-03-06T02:34:43.598Z,0
2023-03-06T02:35:13.601Z,0
2023-03-06T02:35:43.659Z,0
2023-03-06T02:36:13.625Z,0
2023-03-06T02:36:43.622Z,0
2023-03-06T02:37:13.624Z,0
2023-03-06T02:37:43.636Z,0
2023-03-06T02:38:13.651Z,0
2023-03-06T02:38:43.644Z,0
2023-03-06T02:39:13.653Z,0
2023-03-06T02:39:43.655Z,0
2023-03-06T02:40:13.660Z,0
2023-03-06T02:40:43.678Z,0
2023-03-06T02:41:13.692Z,0
2023-03-06T02:41:43.686Z,0
2023-03-06T02:42:13.699Z,0
2023-03-06T02:42:43.741Z,0
2023-03-06T02:43:13.704Z,0
2023-03-06T02:43:43.707Z,0
2023-03-06T02:44:13.716Z,0
2023-03-06T02:44:43.729Z,0
2023-03-06T02:45:13.735Z,0
2023-03-06T02:45:43.736Z,0
2023-03-06T02:46:13.830Z,0
2023-03-06T02:46:43.752Z,0
2023-03-06T02:47:13.763Z,0
2023-03-06T02:47:43.773Z,0
2023-03-06T02:48:13.772Z,0
2023-03-06T02:48:43.774Z,0
2023-03-06T02:49:13.787Z,0
2023-03-06T02:49:43.794Z,0
2023-03-06T02:50:13.799Z,0
2023-03-06T02:50:43.807Z,0
2023-03-06T02:51:13.815Z,0
2023-03-06T02:51:43.812Z,0
2023-03-06T02:52:13.814Z,0
2023-03-06T02:52:43.838Z,0
2023-03-06T02:53:13.829Z,0
2023-03-06T02:53:43.845Z,0
2023-03-06T02:54:13.868Z,0
2023-03-06T02:54:43.858Z,0
2023-03-06T02:55:13.856Z,0
2023-03-06T02:55:43.881Z,0
2023-03-06T02:56:13.877Z,0
2023-03-06T02:56:43.894Z,0
2023-03-06T02:57:13.887Z,0
2023-03-06T02:57:43.900Z,0
2023-03-06T02:58:13.894Z,0
2023-03-06T02:58:43.906Z,0
2023-03-06T02:59:13.911Z,0
2023-03-06T02:59:43.916Z,0
2023-03-06T03:00:13.924Z,0
2023-03-06T03:00:43.942Z,0
2023-03-06T03:01:13.993Z,0
2023-03-06T03:01:43.957Z,0
2023-03-06T03:02:13.953Z,0
2023-03-06T03:02:43.956Z,0
2023-03-06T03:03:13.967Z,0
2023-03-06T03:03:43.969Z,0
2023-03-06T03:04:14.002Z,0
2023-03-06T03:04:44.019Z,0
2023-03-06T03:05:13.994Z,0
2023-03-06T03:05:44.011Z,0
2023-03-06T03:06:14.006Z,0
2023-03-06T03:06:44.008Z,0
2023-03-06T03:07:14.012Z,0
2023-03-06T03:07:44.016Z,0
2023-03-06T03:08:14.032Z,0
2023-03-06T03:08:44.035Z,0
2023-03-06T03:09:14.045Z,0
2023-03-06T03:09:44.060Z,0
2023-03-06T03:10:14.052Z,0
2023-03-06T03:10:44.068Z,0
2023-03-06T03:11:14.074Z,0
2023-03-06T03:11:44.078Z,0
2023-03-06T03:12:14.080Z,0
2023-03-06T03:12:44.085Z,0
2023-03-06T03:13:14.148Z,0
2023-03-06T03:13:44.124Z,0
2023-03-06T03:14:14.116Z,0
2023-03-06T03:14:44.114Z,0
2023-03-06T03:15:14.114Z,0
2023-03-06T03:15:44.160Z,0
2023-03-06T03:16:14.226Z,0
2023-03-06T03:16:44.140Z,0
2023-03-06T03:17:14.155Z,0
2023-03-06T03:17:44.156Z,0
2023-03-06T03:18:14.161Z,0
2023-03-06T03:18:44.168Z,0
2023-03-06T03:19:14.169Z,0
2023-03-06T03:19:44.181Z,0
2023-03-06T03:20:14.198Z,0
2023-03-06T03:20:44.197Z,0
2023-03-06T03:21:14.207Z,0
2023-03-06T03:21:44.230Z,0
2023-03-06T03:22:14.213Z,0
2023-03-06T03:22:44.223Z,0
2023-03-06T03:23:14.235Z,0
2023-03-06T03:23:44.229Z,0
2023-03-06T03:24:14.296Z,0
2023-03-06T03:24:44.314Z,0
2023-03-06T03:25:14.273Z,0
2023-03-06T03:25:44.275Z,0
2023-03-06T03:26:14.269Z,0
2023-03-06T03:26:44.268Z,0
2023-03-06T03:27:14.287Z,0
2023-03-06T03:27:44.290Z,0
2023-03-06T03:28:14.303Z,0
2023-03-06T03:28:44.317Z,0
2023-03-06T03:29:14.306Z,0
2023-03-06T03:29:44.317Z,0
2023-03-06T03:30:14.333Z,0
2023-03-06T03:30:44.332Z,0
2023-03-06T03:31:14.377Z,0
2023-03-06T03:31:44.343Z,0
2023-03-06T03:32:14.364Z,0
2023-03-06T03:32:44.356Z,0
2023-03-06T03:33:14.356Z,0
2023-03-06T03:33:44.364Z,0
2023-03-06T03:34:14.375Z,0
2023-03-06T03:34:44.382Z,0
2023-03-06T03:35:14.388Z,0
2023-03-06T03:35:44.425Z,0
2023-03-06T03:36:14.406Z,0
2023-03-06T03:36:44.411Z,0
2023-03-06T03:37:14.429Z,0
2023-03-06T03:37:44.424Z,0
2023-03-06T03:38:14.423Z,0
2023-03-06T03:38:44.438Z,0
2023-03-06T03:39:14.443Z,0
2023-03-06T03:39:44.453Z,0
2023-03-06T03:40:14.453Z,0
2023-03-06T03:40:44.469Z,0
2023-03-06T03:41:14.470Z,0
2023-03-06T03:41:44.487Z,0
2023-03-06T03:42:14.479Z,0
2023-03-06T03:42:44.491Z,0
2023-03-06T03:43:14.491Z,0
2023-03-06T03:43:44.518Z,0
2023-03-06T03:44:14.508Z,0
2023-03-06T03:44:44.520Z,0
2023-03-06T03:45:14.518Z,0
2023-03-06T03:45:44.576Z,0
2023-03-06T03:46:14.554Z,0
2023-03-06T03:46:44.609Z,0
2023-03-06T03:47:14.554Z,0
2023-03-06T03:47:44.571Z,0
2023-03-06T03:48:14.574Z,0
2023-03-06T03:48:44.568Z,0
2023-03-06T03:49:14.567Z,0
2023-03-06T03:49:44.583Z,0
2023-03-06T03:50:14.599Z,0
2023-03-06T03:50:44.602Z,0
2023-03-06T03:51:14.601Z,0
2023-03-06T03:51:44.610Z,0
2023-03-06T03:52:14.608Z,0
2023-03-06T03:52:44.635Z,0
2023-03-06T03:53:14.622Z,0
2023-03-06T03:53:44.690Z,0
2023-03-06T03:54:14.630Z,0
2023-03-06T03:54:44.652Z,0
2023-03-06T03:55:14.650Z,0
2023-03-06T03:55:44.666Z,0
2023-03-06T03:56:14.665Z,0
2023-03-06T03:56:44.676Z,0
2023-03-06T03:57:14.684Z,0
2023-03-06T03:57:44.689Z,0
2023-03-06T03:58:14.690Z,0
2023-03-06T03:58:44.712Z,0
2023-03-06T03:59:14.701Z,0
2023-03-06T03:59:44.715Z,0
2023-03-06T04:00:14.723Z,0
2023-03-06T04:00:44.726Z,0
2023-03-06T04:01:14.728Z,0
2023-03-06T04:01:44.753Z,0
2023-03-06T04:02:14.790Z,0
2023-03-06T04:02:44.758Z,0
2023-03-06T04:03:14.762Z,0
2023-03-06T04:03:44.769Z,0
2023-03-06T04:04:14.772Z,0
2023-03-06T04:04:44.887Z,0
2023-03-06T04:05:14.898Z,0
2023-03-06T04:05:44.786Z,0
2023-03-06T04:06:14.801Z,0
2023-03-06T04:06:44.814Z,0
2023-03-06T04:07:14.809Z,0
2023-03-06T04:07:44.836Z,0
2023-03-06T04:08:14.831Z,0
2023-03-06T04:08:44.826Z,0
2023-03-06T04:09:14.834Z,0
2023-03-06T04:09:44.845Z,0
2023-03-06T04:10:14.845Z,0
2023-03-06T04:10:44.862Z,0
2023-03-06T04:11:14.858Z,0
2023-03-06T04:11:44.875Z,0
2023-03-06T04:12:14.868Z,0
2023-03-06T04:12:44.887Z,0
2023-03-06T04:13:14.883Z,0
2023-03-06T04:13:44.905Z,0
2023-03-06T04:14:14.905Z,0
2023-03-06T04:14:44.907Z,0
2023-03-06T04:15:14.922Z,0
2023-03-06T04:15:44.922Z,0
2023-03-06T04:16:14.978Z,0
2023-03-06T04:16:44.937Z,0
2023-03-06T04:17:14.944Z,0
2023-03-06T04:17:44.942Z,0
2023-03-06T04:18:14.960Z,0
2023-03-06T04:18:44.966Z,0
2023-03-06T04:19:14.970Z,0
2023-03-06T04:19:44.989Z,0
2023-03-06T04:20:14.987Z,0
2023-03-06T04:20:44.989Z,0
2023-03-06T04:21:14.981Z,0
2023-03-06T04:21:45.001Z,0
2023-03-06T04:22:15.007Z,0
2023-03-06T04:22:45.017Z,0
2023-03-06T04:23:15.023Z,0
2023-03-06T04:23:45.023Z,0
2023-03-06T04:24:15.038Z,0
2023-03-06T04:24:45.038Z,0
2023-03-06T04:25:15.053Z,0
2023-03-06T04:25:45.053Z,0
2023-03-06T04:26:15.086Z,0
2023-03-06T04:26:45.063Z,0
2023-03-06T04:27:15.073Z,0
2023-03-06T04:27:45.078Z,0
2023-03-06T04:28:15.088Z,0
2023-03-06T04:28:45.091Z,0
2023-03-06T04:29:15.120Z,0
2023-03-06T04:29:45.106Z,0
2023-03-06T04:30:15.130Z,0
2023-03-06T04:30:45.116Z,0
2023-03-06T04:31:15.164Z,0
2023-03-06T04:31:45.184Z,0
2023-03-06T04:32:15.144Z,0
2023-03-06T04:32:45.150Z,0
2023-03-06T04:33:15.168Z,0
2023-03-06T04:33:45.178Z,0
2023-03-06T04:34:15.159Z,0
2023-03-06T04:34:45.168Z,0
2023-03-06T04:35:15.176Z,0
2023-03-06T04:35:45.219Z,0
2023-03-06T04:36:15.192Z,0
2023-03-06T04:36:45.222Z,0
2023-03-06T04:37:15.211Z,0
2023-03-06T04:37:45.212Z,0
2023-03-06T04:38:15.221Z,0
2023-03-06T04:38:45.253Z,0
2023-03-06T04:39:15.224Z,0
2023-03-06T04:39:45.242Z,0
2023-03-06T04:40:15.249Z,0
2023-03-06T04:40:45.249Z,0
2023-03-06T04:41:15.256Z,0
2023-03-06T04:41:45.266Z,0
2023-03-06T04:42:15.272Z,0
2023-03-06T04:42:45.290Z,0
2023-03-06T04:43:15.286Z,0
2023-03-06T04:43:45.290Z,0
2023-03-06T04:44:15.313Z,0
2023-03-06T04:44:45.328Z,0
2023-03-06T04:45:15.305Z,0
2023-03-06T04:45:45.348Z,0
2023-03-06T04:46:15.327Z,0
2023-03-06T04:46:45.334Z,0
2023-03-06T04:47:16.131Z,0
2023-03-06T04:47:45.338Z,0
2023-03-06T04:48:15.357Z,0
2023-03-06T04:48:45.354Z,0
2023-03-06T04:49:15.359Z,0
2023-03-06T04:49:45.375Z,0
2023-03-06T04:50:15.381Z,0
2023-03-06T04:50:45.384Z,0
2023-03-06T04:51:15.388Z,0
2023-03-06T04:51:45.415Z,0
2023-03-06T04:52:15.401Z,0
2023-03-06T04:52:45.409Z,0
2023-03-06T04:53:15.407Z,0
2023-03-06T04:53:45.429Z,0
2023-03-06T04:54:16.621Z,0
2023-03-06T04:54:45.432Z,0
2023-03-06T04:55:15.452Z,0
2023-03-06T04:55:45.451Z,0
2023-03-06T04:56:15.455Z,0
2023-03-06T04:56:45.463Z,0
2023-03-06T04:57:15.468Z,0
2023-03-06T04:57:45.482Z,0
2023-03-06T04:58:15.487Z,0
2023-03-06T04:58:45.498Z,0
2023-03-06T04:59:15.491Z,0
2023-03-06T04:59:45.506Z,0
2023-03-06T05:00:15.511Z,0
2023-03-06T05:00:45.527Z,0
2023-03-06T05:01:15.529Z,0
2023-03-06T05:01:45.534Z,0
2023-03-06T05:02:15.573Z,0
2023-03-06T05:02:45.542Z,0
2023-03-06T05:03:15.548Z,0
2023-03-06T05:03:45.552Z,0
2023-03-06T05:04:15.558Z,0
2023-03-06T05:04:45.565Z,0
2023-03-06T05:05:15.598Z,0
2023-03-06T05:05:45.578Z,0
2023-03-06T05:06:15.578Z,0
2023-03-06T05:06:45.588Z,0
2023-03-06T05:07:15.593Z,0
2023-03-06T05:07:45.607Z,0
2023-03-06T05:08:15.607Z,0
2023-03-06T05:08:45.620Z,0
2023-03-06T05:09:15.640Z,0
2023-03-06T05:09:45.637Z,0
2023-03-06T05:10:15.629Z,0
2023-03-06T05:10:45.674Z,0
2023-03-06T05:11:15.656Z,0
2023-03-06T05:11:45.677Z,0
2023-03-06T05:12:15.667Z,0
2023-03-06T05:12:45.672Z,0
2023-03-06T05:13:15.672Z,0
2023-03-06T05:13:45.684Z,0
2023-03-06T05:14:15.691Z,0
2023-03-06T05:14:47.971Z,0
2023-03-06T05:15:15.696Z,0
2023-03-06T05:15:45.709Z,0
2023-03-06T05:16:15.768Z,0
2023-03-06T05:16:45.754Z,0
2023-03-06T05:17:15.728Z,0
2023-03-06T05:17:45.744Z,0
2023-03-06T05:18:15.741Z,0
2023-03-06T05:18:45.754Z,0
2023-03-06T05:19:15.768Z,0
2023-03-06T05:19:45.775Z,0
2023-03-06T05:20:15.768Z,0
2023-03-06T05:20:45.772Z,0
2023-03-06T05:21:15.776Z,0
2023-03-06T05:21:45.791Z,0
2023-03-06T05:22:15.801Z,0
2023-03-06T05:22:45.803Z,0
2023-03-06T05:23:15.800Z,0
2023-03-06T05:23:45.810Z,0
2023-03-06T05:24:15.821Z,0
2023-03-06T05:24:45.822Z,0
2023-03-06T05:25:15.846Z,0
2023-03-06T05:25:45.836Z,0
2023-03-06T05:26:15.845Z,0
2023-03-06T05:26:50.965Z,0
2023-03-06T05:27:16.961Z,0
2023-03-06T05:27:45.870Z,0
2023-03-06T05:28:15.873Z,0
2023-03-06T05:28:45.886Z,0
2023-03-06T05:29:15.889Z,0
2023-03-06T05:29:45.893Z,0
2023-03-06T05:30:15.928Z,0
2023-03-06T05:30:45.926Z,0
2023-03-06T05:31:16.552Z,0
2023-03-06T05:31:45.932Z,0
2023-03-06T05:32:15.942Z,0
2023-03-06T05:32:45.941Z,0
2023-03-06T05:33:15.945Z,0
2023-03-06T05:33:45.946Z,0
2023-03-06T05:34:15.955Z,0
2023-03-06T05:34:45.959Z,0
2023-03-06T05:35:15.959Z,0
2023-03-06T05:35:46.009Z,0
2023-03-06T05:36:15.976Z,0
2023-03-06T05:36:45.995Z,0
2023-03-06T05:37:15.987Z,0
2023-03-06T05:37:45.998Z,0
2023-03-06T05:38:16.061Z,0
2023-03-06T05:38:46.026Z,0
2023-03-06T05:39:16.017Z,0
2023-03-06T05:39:46.030Z,0
2023-03-06T05:40:16.042Z,0
2023-03-06T05:40:46.053Z,0
2023-03-06T05:41:16.044Z,0
2023-03-06T05:41:46.066Z,0
2023-03-06T05:42:16.065Z,0
2023-03-06T05:42:46.072Z,0
2023-03-06T05:43:16.072Z,0
2023-03-06T05:43:46.091Z,0
2023-03-06T05:44:16.088Z,0
2023-03-06T05:44:46.099Z,0
2023-03-06T05:45:18.413Z,0
2023-03-06T05:45:46.180Z,0
2023-03-06T05:46:16.165Z,0
2023-03-06T05:46:46.130Z,0
2023-03-06T05:47:16.134Z,0
2023-03-06T05:47:46.141Z,0
2023-03-06T05:48:16.145Z,0
2023-03-06T05:48:46.901Z,0
2023-03-06T05:49:16.171Z,0
2023-03-06T05:49:46.162Z,0
2023-03-06T05:50:16.168Z,0
2023-03-06T05:50:46.180Z,0
2023-03-06T05:51:16.178Z,0
2023-03-06T05:51:46.191Z,0
2023-03-06T05:52:16.202Z,0
2023-03-06T05:52:46.219Z,0
2023-03-06T05:53:16.203Z,0
2023-03-06T05:53:46.218Z,0
2023-03-06T05:54:16.221Z,0
2023-03-06T05:54:46.233Z,0
2023-03-06T05:55:16.241Z,0
2023-03-06T05:55:46.241Z,0
2023-03-06T05:56:16.244Z,0
2023-03-06T05:56:46.257Z,0
2023-03-06T05:57:16.259Z,0
2023-03-06T05:57:46.265Z,0
2023-03-06T05:58:16.266Z,0
2023-03-06T05:58:46.282Z,0
2023-03-06T05:59:16.308Z,0
2023-03-06T05:59:46.495Z,0
2023-03-06T06:00:16.313Z,0
2023-03-06T06:00:46.326Z,0
2023-03-06T06:01:16.324Z,0
2023-03-06T06:01:46.321Z,0
2023-03-06T06:02:16.350Z,0
2023-03-06T06:02:46.373Z,0
2023-03-06T06:03:16.373Z,0
2023-03-06T06:03:46.403Z,0
2023-03-06T06:04:16.352Z,0
2023-03-06T06:04:46.359Z,0
2023-03-06T06:05:16.376Z,0
2023-03-06T06:05:46.370Z,0
2023-03-06T06:06:16.380Z,0
2023-03-06T06:06:46.384Z,0
2023-03-06T06:07:16.411Z,0
2023-03-06T06:07:46.420Z,0
2023-03-06T06:08:16.397Z,0
2023-03-06T06:08:46.414Z,0
2023-03-06T06:09:16.417Z,0
2023-03-06T06:09:46.425Z,0
2023-03-06T06:10:16.429Z,0
2023-03-06T06:10:46.449Z,0
2023-03-06T06:11:16.434Z,0
2023-03-06T06:11:46.483Z,0
2023-03-06T06:12:16.454Z,0
2023-03-06T06:12:46.464Z,0
2023-03-06T06:13:16.466Z,0
2023-03-06T06:13:46.489Z,0
2023-03-06T06:14:16.480Z,0
2023-03-06T06:14:46.499Z,0.62
2023-03-06T06:15:16.496Z,0.73
2023-03-06T06:15:46.547Z,0.98
2023-03-06T06:15:51.009Z,1
2023-03-06T06:15:57.010Z,2.02
2023-03-06T06:16:16.648Z,0.88
2023-03-06T06:16:32.968Z,2.49
2023-03-06T06:16:38.981Z,1.11
2023-03-06T06:16:46.529Z,0.95
2023-03-06T06:16:56.974Z,2.31
2023-03-06T06:17:10.964Z,2.31
2023-03-06T06:17:16.528Z,1.3
2023-03-06T06:17:28.965Z,0.99
2023-03-06T06:17:43.971Z,2.41
2023-03-06T06:17:46.573Z,0.98
2023-03-06T06:18:16.543Z,1.09
2023-03-06T06:18:31.970Z,2.28
2023-03-06T06:18:40.613Z,1.16
2023-03-06T06:18:46.548Z,2.42
2023-03-06T06:19:00.965Z,2.21
2023-03-06T06:19:16.549Z,2.16
2023-03-06T06:19:46.554Z,1.46
2023-03-06T06:20:10.986Z,3.57
2023-03-06T06:20:16.560Z,2.49
2023-03-06T06:20:26.973Z,3.88
2023-03-06T06:20:37.994Z,5.73
2023-03-06T06:20:46.575Z,4.27
2023-03-06T06:20:58.984Z,4.27
2023-03-06T06:21:09.980Z,3.74
2023-03-06T06:21:16.571Z,5.28
2023-03-06T06:21:31.977Z,2.55
2023-03-06T06:21:36.975Z,4.09
2023-03-06T06:21:46.590Z,2.64
2023-03-06T06:22:00.986Z,3.97
2023-03-06T06:22:08.975Z,2.32
2023-03-06T06:22:16.587Z,4.26
2023-03-06T06:22:28.977Z,3.77
2023-03-06T06:22:38.982Z,4.8
2023-03-06T06:22:46.600Z,6.38
2023-03-06T06:22:56.974Z,2.38
2023-03-06T06:23:08.984Z,5.38
2023-03-06T06:23:16.855Z,2.65
2023-03-06T06:23:31.982Z,2.45
2023-03-06T06:23:37.977Z,5.63
2023-03-06T06:23:46.609Z,3.14
2023-03-06T06:24:00.979Z,2.51
2023-03-06T06:24:08.000Z,5.23
2023-03-06T06:24:16.628Z,4.81
2023-03-06T06:24:31.995Z,5.03
2023-03-06T06:24:37.989Z,2.04
2023-03-06T06:24:46.623Z,2.31
2023-03-06T06:24:56.997Z,5.44
2023-03-06T06:25:07.990Z,4.47
2023-03-06T06:25:16.632Z,4.55
2023-03-06T06:25:28.986Z,5.86
2023-03-06T06:25:40.986Z,2.56
2023-03-06T06:25:46.654Z,4.52
2023-03-06T06:25:58.986Z,5.02
2023-03-06T06:26:16.671Z,2.7
2023-03-06T06:26:26.986Z,5.79
2023-03-06T06:26:41.984Z,2.04
2023-03-06T06:26:46.661Z,4.15
2023-03-06T06:26:56.986Z,2.83
2023-03-06T06:27:10.985Z,2.68
2023-03-06T06:27:16.777Z,5.05
2023-03-06T06:27:28.991Z,5.16
2023-03-06T06:27:40.018Z,5.46
2023-03-06T06:27:46.665Z,2.67
2023-03-06T06:27:58.989Z,3
2023-03-06T06:28:07.996Z,4.11
2023-03-06T06:28:16.669Z,3.31
2023-03-06T06:28:29.991Z,2.77
2023-03-06T06:28:38.010Z,4.9
2023-03-06T06:28:46.678Z,4.07
2023-03-06T06:29:00.381Z,4.08
2023-03-06T06:29:10.998Z,3.96
2023-03-06T06:29:16.683Z,4.06
2023-03-06T06:29:28.996Z,4.6
2023-03-06T06:29:40.989Z,5.5
2023-03-06T06:29:46.706Z,4.29
2023-03-06T06:30:01.996Z,4.54
2023-03-06T06:30:16.698Z,2.78
2023-03-06T06:30:29.998Z,4.33
2023-03-06T06:30:41.994Z,4.16
2023-03-06T06:30:46.728Z,3.39
2023-03-06T06:31:01.148Z,2.74
2023-03-06T06:31:16.820Z,3.43
2023-03-06T06:31:32.076Z,2.51
2023-03-06T06:31:37.990Z,5.31
2023-03-06T06:31:46.727Z,5.23
2023-03-06T06:32:01.084Z,2.52
2023-03-06T06:32:12.017Z,2.62
2023-03-06T06:32:16.748Z,3.58
2023-03-06T06:32:30.034Z,4.15
2023-03-06T06:32:42.010Z,4.55
2023-03-06T06:32:46.732Z,3.14
2023-03-06T06:33:00.035Z,3.37
2023-03-06T06:33:11.996Z,2.71
2023-03-06T06:33:16.743Z,3.55
2023-03-06T06:33:30.994Z,4.72
2023-03-06T06:33:38.007Z,2.72
2023-03-06T06:33:46.767Z,3.55
2023-03-06T06:34:02.999Z,4.2
2023-03-06T06:34:08.005Z,5.22
2023-03-06T06:34:16.756Z,3.49
2023-03-06T06:34:30.008Z,4.16
2023-03-06T06:34:42.000Z,4.05
2023-03-06T06:34:46.784Z,2.84
2023-03-06T06:34:59.020Z,5.97
2023-03-06T06:35:15.003Z,2.89
2023-03-06T06:35:16.779Z,2.89
2023-03-06T06:35:28.017Z,2.2
2023-03-06T06:35:39.036Z,0
2023-03-06T06:35:46.876Z,0
2023-03-06T06:36:16.781Z,0
2023-03-06T06:36:28.017Z,3.46
2023-03-06T06:36:40.011Z,3.47
2023-03-06T06:36:46.794Z,3.37
2023-03-06T06:37:10.008Z,5.24
2023-03-06T06:37:16.797Z,4.82
2023-03-06T06:37:27.004Z,2.76
2023-03-06T06:37:39.004Z,2.5
2023-03-06T06:37:46.797Z,5.59
2023-03-06T06:38:11.016Z,2.69
2023-03-06T06:38:16.805Z,4.28
2023-03-06T06:38:46.832Z,4.25